Time;durP1;ratioP1;P1;durP2;ratioP2;P2;SDS_P1;SDS_P2;PMS_P1;PMS_P2;Temp;Humidity;BMP_temperature;BMP_pressure;BME280_temperature;BME280_humidity;BME280_pressure;Samples;Min_cycle;Max_cycle;Signal;HPM_P1;HPM_P2
2023/08/04 00:02:20;;;;;;;11.68;3.60;;;16.10;99.90;;;;;;5011834;28;20238;-49
2023/08/04 00:04:46;;;;;;;12.43;2.83;;;16.10;99.90;;;;;;5011935;28;20203;-50
2023/08/04 00:07:11;;;;;;;10.55;3.53;;;16.10;99.90;;;;;;5012115;28;20195;-50
2023/08/04 00:09:37;;;;;;;7.88;2.90;;;16.10;99.90;;;;;;5012028;28;20667;-47
2023/08/04 00:12:03;;;;;;;12.10;3.13;;;16.10;99.90;;;;;;5012277;28;20644;-48
2023/08/04 00:14:28;;;;;;;13.38;3.88;;;16.00;99.90;;;;;;5012033;28;20525;-50
2023/08/04 00:16:54;;;;;;;20.95;3.72;;;15.90;99.90;;;;;;5011823;28;20168;-48
2023/08/04 00:19:19;;;;;;;14.50;3.55;;;15.90;99.90;;;;;;5011884;28;20499;-47
2023/08/04 00:21:45;;;;;;;9.77;3.63;;;15.90;99.90;;;;;;5011924;28;20667;-50
2023/08/04 00:24:10;;;;;;;11.75;3.47;;;15.90;99.90;;;;;;5011710;28;20172;-48
2023/08/04 00:26:36;;;;;;;13.55;3.17;;;16.00;99.90;;;;;;5027635;28;20188;-48
2023/08/04 00:29:01;;;;;;;11.25;3.33;;;15.80;99.90;;;;;;5031691;28;20186;-48
2023/08/04 00:31:27;;;;;;;9.70;2.85;;;15.80;99.90;;;;;;5031303;28;20175;-48
2023/08/04 00:33:53;;;;;;;10.20;3.35;;;15.90;99.90;;;;;;5031256;28;20189;-48
2023/08/04 00:36:18;;;;;;;10.07;3.17;;;15.80;99.90;;;;;;5031203;28;20538;-47
2023/08/04 00:38:44;;;;;;;7.70;3.15;;;15.70;99.90;;;;;;5031399;28;20182;-48
2023/08/04 00:41:09;;;;;;;8.98;3.13;;;15.90;99.90;;;;;;5031191;28;20588;-48
2023/08/04 00:43:35;;;;;;;7.85;2.72;;;15.80;99.90;;;;;;5031145;28;20183;-47
2023/08/04 00:46:00;;;;;;;7.80;3.65;;;15.70;99.90;;;;;;5031664;28;20175;-47
2023/08/04 00:48:26;;;;;;;13.18;3.53;;;15.80;99.90;;;;;;5029755;28;20171;-47
2023/08/04 00:50:52;;;;;;;9.13;3.13;;;15.60;99.90;;;;;;5030792;28;20167;-48
2023/08/04 00:53:18;;;;;;;9.90;3.47;;;15.70;99.90;;;;;;5031366;28;20171;-47
2023/08/04 00:55:43;;;;;;;10.00;3.15;;;15.60;99.90;;;;;;5030254;28;20175;-47
2023/08/04 00:58:09;;;;;;;13.20;3.42;;;15.70;99.90;;;;;;5030883;28;20167;-47
2023/08/04 01:00:37;;;;;;;12.07;3.00;;;15.60;99.90;;;;;;5031005;28;20650;-47
2023/08/04 01:03:03;;;;;;;11.43;3.55;;;15.60;99.90;;;;;;5031602;28;20337;-47
2023/08/04 01:05:40;;;;;;;10.30;3.47;;;15.70;99.90;;;;;;5030936;28;20167;-47
2023/08/04 01:08:17;;;;;;;12.05;3.60;;;15.70;99.90;;;;;;5030902;28;20229;-47
2023/08/04 01:10:52;;;;;;;12.98;3.78;;;15.60;99.90;;;;;;5030800;28;20619;-47
2023/08/04 01:13:21;;;;;;;9.88;3.03;;;15.60;99.90;;;;;;5030668;28;20248;-47
2023/08/04 01:15:49;;;;;;;8.73;3.70;;;15.60;99.90;;;;;;5031094;28;20175;-47
2023/08/04 01:18:19;;;;;;;9.55;3.20;;;15.60;99.90;;;;;;5030770;28;20168;-48
2023/08/04 01:20:45;;;;;;;13.57;3.70;;;15.80;99.90;;;;;;5031087;28;20269;-47
2023/08/04 01:23:10;;;;;;;12.50;3.00;;;15.60;99.90;;;;;;5030701;28;20289;-47
2023/08/04 01:25:36;;;;;;;18.10;3.80;;;15.60;99.90;;;;;;5020655;28;20172;-47
2023/08/04 01:28:05;;;;;;;12.50;3.63;;;15.70;99.90;;;;;;5011378;28;20302;-47
2023/08/04 01:30:32;;;;;;;6.47;3.42;;;15.80;99.90;;;;;;5011239;28;20536;-47
2023/08/04 01:32:58;;;;;;;9.30;3.40;;;15.60;99.90;;;;;;5010978;28;20183;-47
2023/08/04 01:35:24;;;;;;;10.30;3.85;;;15.60;99.90;;;;;;5010883;28;20255;-47
2023/08/04 01:37:50;;;;;;;7.15;3.45;;;15.60;99.90;;;;;;5010858;28;20239;-47
2023/08/04 01:40:15;;;;;;;12.20;3.65;;;15.70;99.90;;;;;;5011874;28;20597;-47
2023/08/04 01:42:41;;;;;;;11.38;3.80;;;15.70;99.90;;;;;;5010909;28;20619;-47
2023/08/04 01:45:07;;;;;;;20.13;4.68;;;15.70;99.90;;;;;;5009576;28;20168;-47
2023/08/04 01:47:33;;;;;;;11.10;3.65;;;15.60;99.90;;;;;;5009891;28;20686;-47
2023/08/04 01:49:58;;;;;;;10.63;3.60;;;15.60;99.90;;;;;;5011414;28;20172;-47
2023/08/04 01:52:24;;;;;;;10.82;3.25;;;15.70;99.90;;;;;;5010739;28;20168;-47
2023/08/04 01:54:50;;;;;;;8.38;3.17;;;15.70;99.90;;;;;;5013787;28;20222;-50
2023/08/04 01:57:16;;;;;;;9.10;3.53;;;15.60;99.90;;;;;;5030263;28;20176;-50
2023/08/04 01:59:41;;;;;;;10.05;3.90;;;15.60;99.90;;;;;;5030320;28;20207;-47
2023/08/04 02:02:07;;;;;;;7.00;3.45;;;15.80;99.90;;;;;;5030438;28;20207;-48
2023/08/04 02:04:33;;;;;;;15.40;3.80;;;15.60;99.90;;;;;;5029982;28;20191;-47
2023/08/04 02:06:59;;;;;;;12.50;4.03;;;15.70;99.90;;;;;;5034432;28;20650;-50
2023/08/04 02:09:27;;;;;;;13.48;4.10;;;15.60;99.90;;;;;;5033896;28;20170;-48
2023/08/04 02:11:54;;;;;;;11.27;3.97;;;15.70;99.90;;;;;;5033933;28;20590;-49
2023/08/04 02:14:19;;;;;;;10.63;3.55;;;15.60;99.90;;;;;;5034212;28;20167;-48
2023/08/04 02:16:45;;;;;;;14.57;4.10;;;15.60;99.90;;;;;;5033954;28;20174;-49
2023/08/04 02:19:11;;;;;;;13.32;3.60;;;15.60;99.90;;;;;;5033790;28;20179;-50
2023/08/04 02:21:37;;;;;;;10.30;4.50;;;15.60;99.90;;;;;;5033482;28;20258;-48
2023/08/04 02:24:03;;;;;;;12.93;3.88;;;15.50;99.90;;;;;;5033996;28;20528;-50
2023/08/04 02:26:29;;;;;;;11.88;4.28;;;14.60;99.90;;;;;;5016037;28;20183;-47
2023/08/04 02:28:55;;;;;;;10.65;4.57;;;15.40;99.90;;;;;;5013834;28;20659;-48
2023/08/04 02:31:23;;;;;;;18.90;4.25;;;15.50;99.90;;;;;;5012573;28;20730;-47
2023/08/04 02:33:49;;;;;;;13.10;4.18;;;15.50;99.90;;;;;;5013701;28;20251;-47
2023/08/04 02:36:16;;;;;;;11.68;4.00;;;15.40;99.90;;;;;;5013737;28;20167;-47
2023/08/04 02:38:41;;;;;;;10.10;4.32;;;15.40;99.90;;;;;;5013806;28;20648;-47
2023/08/04 02:41:09;;;;;;;16.42;4.15;;;15.50;99.90;;;;;;5013554;28;20175;-47
2023/08/04 02:43:35;;;;;;;14.48;4.50;;;15.30;99.90;;;;;;5013581;28;20175;-47
2023/08/04 02:46:00;;;;;;;9.93;4.50;;;15.50;99.90;;;;;;5013932;28;20259;-49
2023/08/04 02:48:26;;;;;;;13.35;5.10;;;15.40;99.90;;;;;;5013493;28;20258;-49
2023/08/04 02:51:04;;;;;;;9.80;4.70;;;15.40;99.90;;;;;;5013451;28;20168;-47
2023/08/04 02:53:31;;;;;;;12.88;4.32;;;15.40;99.90;;;;;;5013710;28;20251;-50
2023/08/04 02:55:57;;;;;;;11.50;4.78;;;15.40;99.90;;;;;;5027478;28;20172;-49
2023/08/04 02:58:24;;;;;;;8.40;4.50;;;15.50;99.90;;;;;;5033029;28;20171;-48
2023/08/04 03:00:50;;;;;;;16.13;5.40;;;15.50;99.90;;;;;;5032914;28;20167;-48
2023/08/04 03:03:17;;;;;;;14.60;5.47;;;15.30;99.90;;;;;;5032924;28;20243;-50
2023/08/04 03:05:43;;;;;;;12.57;4.57;;;15.40;99.90;;;;;;5032789;28;20168;-48
2023/08/04 03:08:09;;;;;;;9.80;4.85;;;15.50;99.90;;;;;;5032936;28;20171;-48
2023/08/04 03:10:34;;;;;;;16.13;4.55;;;15.50;99.90;;;;;;5032719;28;20194;-47
2023/08/04 03:13:00;;;;;;;11.75;5.05;;;15.40;99.90;;;;;;5031907;28;20318;-47
2023/08/04 03:15:25;;;;;;;16.48;6.13;;;15.40;99.90;;;;;;5032837;28;20211;-47
2023/08/04 03:17:51;;;;;;;13.20;5.10;;;15.50;99.90;;;;;;5031572;28;20202;-50
2023/08/04 03:20:16;;;;;;;16.00;5.20;;;15.40;99.90;;;;;;5032955;28;20167;-48
2023/08/04 03:22:42;;;;;;;14.77;5.40;;;15.40;99.90;;;;;;5032504;28;20207;-50
2023/08/04 03:25:09;;;;;;;17.40;5.72;;;15.30;99.90;;;;;;5030829;28;20182;-49
2023/08/04 03:27:35;;;;;;;12.43;6.18;;;15.40;99.90;;;;;;5032298;28;20179;-49
2023/08/04 03:30:01;;;;;;;14.15;5.30;;;15.50;99.90;;;;;;5031511;28;20182;-50
2023/08/04 03:32:27;;;;;;;13.55;4.90;;;15.40;99.90;;;;;;5032446;28;20171;-50
2023/08/04 03:34:52;;;;;;;13.02;5.70;;;15.40;99.90;;;;;;5032522;28;20164;-50
2023/08/04 03:37:18;;;;;;;9.73;5.07;;;15.60;99.90;;;;;;5032333;28;20768;-47
2023/08/04 03:39:43;;;;;;;16.55;5.03;;;15.60;99.90;;;;;;5032372;28;20650;-47
2023/08/04 03:42:09;;;;;;;14.95;5.90;;;15.50;99.90;;;;;;5032058;28;20679;-47
2023/08/04 03:44:34;;;;;;;15.57;5.47;;;15.50;99.90;;;;;;5032140;28;20627;-47
2023/08/04 03:47:00;;;;;;;18.02;5.93;;;15.50;99.90;;;;;;5032779;28;20171;-47
2023/08/04 03:49:26;;;;;;;18.90;6.50;;;15.50;99.90;;;;;;5032013;28;20160;-47
2023/08/04 03:51:51;;;;;;;13.20;5.75;;;15.40;99.90;;;;;;5032079;28;20167;-46
2023/08/04 03:54:17;;;;;;;15.30;5.32;;;15.40;99.90;;;;;;5031929;28;20167;-47
2023/08/04 03:56:42;;;;;;;14.90;5.35;;;15.40;99.90;;;;;;5031992;28;20170;-47
2023/08/04 03:59:11;;;;;;;12.35;5.70;;;15.30;99.90;;;;;;5031883;28;20217;-47
2023/08/04 04:01:37;;;;;;;18.35;5.53;;;15.50;99.90;;;;;;5030534;28;20595;-48
2023/08/04 04:04:02;;;;;;;17.13;5.68;;;15.40;99.90;;;;;;5032389;28;20171;-47
2023/08/04 04:06:28;;;;;;;14.45;5.18;;;15.30;99.90;;;;;;5032152;28;20164;-47
2023/08/04 04:08:54;;;;;;;20.50;6.15;;;15.40;99.90;;;;;;5031665;28;20189;-47
2023/08/04 04:11:20;;;;;;;11.88;5.40;;;15.30;99.90;;;;;;5031635;28;20193;-47
2023/08/04 04:13:45;;;;;;;13.88;5.93;;;15.50;99.90;;;;;;5031613;28;20163;-47
2023/08/04 04:16:11;;;;;;;16.02;6.10;;;15.30;99.90;;;;;;5031582;28;20274;-47
2023/08/04 04:18:36;;;;;;;14.80;5.47;;;15.40;99.90;;;;;;5031651;28;20639;-47
2023/08/04 04:21:02;;;;;;;11.00;5.53;;;15.30;99.90;;;;;;5031926;28;20184;-47
2023/08/04 04:23:28;;;;;;;11.20;5.53;;;16.00;99.90;;;;;;5031919;28;20587;-47
2023/08/04 04:25:53;;;;;;;14.50;6.20;;;15.40;99.90;;;;;;5016118;28;20643;-47
2023/08/04 04:28:19;;;;;;;15.65;6.30;;;15.60;99.90;;;;;;5011167;28;20624;-47
2023/08/04 04:30:45;;;;;;;14.02;5.88;;;15.50;99.90;;;;;;5011881;28;20735;-47
2023/08/04 04:33:11;;;;;;;14.05;5.88;;;15.40;99.90;;;;;;5011389;28;20180;-48
2023/08/04 04:35:36;;;;;;;9.50;5.97;;;15.60;99.90;;;;;;5011821;28;20168;-47
2023/08/04 04:38:02;;;;;;;17.17;5.70;;;15.40;99.90;;;;;;5011805;28;20168;-47
2023/08/04 04:40:28;;;;;;;25.23;6.70;;;15.50;99.90;;;;;;5011965;28;20156;-47
2023/08/04 04:42:53;;;;;;;12.57;6.28;;;15.50;99.90;;;;;;5011359;28;20246;-47
2023/08/04 04:45:19;;;;;;;16.50;6.15;;;15.50;99.90;;;;;;5011531;28;20170;-47
2023/08/04 04:47:45;;;;;;;16.83;6.47;;;15.40;99.90;;;;;;5011485;28;20171;-47
2023/08/04 04:50:11;;;;;;;15.27;6.25;;;15.50;99.90;;;;;;5011560;28;20229;-48
2023/08/04 04:52:37;;;;;;;21.75;6.07;;;15.60;99.90;;;;;;5011624;28;20207;-47
2023/08/04 04:55:04;;;;;;;17.42;5.72;;;15.50;99.90;;;;;;5020055;28;20167;-47
2023/08/04 04:57:30;;;;;;;20.15;6.55;;;15.50;99.90;;;;;;5030907;28;20704;-47
2023/08/04 04:59:56;;;;;;;15.63;6.53;;;15.60;99.90;;;;;;5029745;28;20179;-47
2023/08/04 05:02:22;;;;;;;15.25;6.38;;;15.60;99.90;;;;;;5031064;28;20309;-47
2023/08/04 05:04:48;;;;;;;17.55;6.93;;;15.60;99.90;;;;;;5031177;28;20171;-47
2023/08/04 05:07:13;;;;;;;15.27;6.20;;;15.60;99.90;;;;;;5030837;28;20254;-47
2023/08/04 05:09:39;;;;;;;14.10;6.70;;;15.70;99.90;;;;;;5030927;28;20164;-47
2023/08/04 05:12:06;;;;;;;11.93;6.65;;;15.60;99.90;;;;;;5029352;28;20222;-47
2023/08/04 05:14:33;;;;;;;17.77;7.22;;;15.60;99.90;;;;;;5031570;28;20531;-47
2023/08/04 05:16:59;;;;;;;18.10;6.53;;;13.30;99.90;;;;;;5031135;28;20164;-47
2023/08/04 05:19:24;;;;;;;17.85;7.00;;;15.70;99.90;;;;;;5030809;28;20700;-47
2023/08/04 05:21:50;;;;;;;19.60;7.35;;;15.60;99.90;;;;;;5030657;28;20817;-47
2023/08/04 05:24:15;;;;;;;20.08;6.68;;;15.60;99.90;;;;;;5028594;28;20623;-47
2023/08/04 05:26:41;;;;;;;17.27;6.95;;;15.60;99.90;;;;;;5011203;28;20176;-47
2023/08/04 05:29:06;;;;;;;14.85;7.15;;;15.70;99.90;;;;;;5011049;28;20646;-46
2023/08/04 05:31:32;;;;;;;15.30;6.68;;;15.70;99.90;;;;;;5010870;28;20230;-47
2023/08/04 05:34:00;;;;;;;14.85;7.10;;;15.60;99.90;;;;;;5011323;28;20198;-48
2023/08/04 05:36:26;;;;;;;14.77;6.80;;;15.80;99.90;;;;;;5011148;28;20186;-47
2023/08/04 05:38:52;;;;;;;14.25;6.55;;;15.90;99.90;;;;;;5009685;28;20175;-47
2023/08/04 05:41:17;;;;;;;12.55;6.30;;;15.90;99.90;;;;;;5013092;28;20183;-47
2023/08/04 05:43:43;;;;;;;14.40;5.78;;;15.90;99.90;;;;;;5013473;28;20283;-47
2023/08/04 05:46:12;;;;;;;15.63;6.22;;;15.90;99.90;;;;;;5014498;28;20176;-46
2023/08/04 05:48:38;;;;;;;16.00;6.70;;;16.10;99.90;;;;;;5014918;28;20174;-47
2023/08/04 05:51:04;;;;;;;15.38;5.80;;;16.00;99.90;;;;;;5014439;28;20578;-47
2023/08/04 05:53:29;;;;;;;17.65;5.80;;;16.20;99.90;;;;;;5014953;28;20247;-47
2023/08/04 05:55:55;;;;;;;15.25;6.80;;;16.10;99.90;;;;;;5032299;28;20221;-47
2023/08/04 05:58:20;;;;;;;11.70;6.32;;;16.20;99.90;;;;;;5032913;28;20789;-47
2023/08/04 06:00:46;;;;;;;12.85;5.80;;;16.20;99.90;;;;;;5034150;28;20624;-47
2023/08/04 06:03:11;;;;;;;19.08;5.40;;;16.30;99.90;;;;;;5034337;28;20218;-47
2023/08/04 06:05:37;;;;;;;10.80;5.70;;;16.30;99.90;;;;;;5033984;28;20170;-47
2023/08/04 06:08:03;;;;;;;19.35;6.60;;;17.80;99.90;;;;;;5033946;28;20172;-47
2023/08/04 06:10:29;;;;;;;13.75;6.22;;;16.30;99.90;;;;;;5034657;28;20175;-47
2023/08/04 06:12:55;;;;;;;11.85;5.28;;;16.40;99.90;;;;;;5033723;28;20225;-47
2023/08/04 06:15:21;;;;;;;13.20;5.50;;;16.50;99.90;;;;;;5033866;28;20164;-47
2023/08/04 06:17:47;;;;;;;8.63;5.13;;;16.40;99.90;;;;;;5033847;28;20195;-47
2023/08/04 06:20:13;;;;;;;15.20;5.97;;;16.50;99.90;;;;;;5033777;28;20773;-48
2023/08/04 06:22:38;;;;;;;13.20;4.90;;;16.60;99.90;;;;;;5033665;28;20207;-48
2023/08/04 06:25:05;;;;;;;14.00;5.72;;;16.50;99.90;;;;;;5023021;28;20168;-48
2023/08/04 06:27:31;;;;;;;9.43;5.65;;;16.50;99.90;;;;;;5014854;28;20176;-47
2023/08/04 06:29:58;;;;;;;14.32;6.07;;;16.50;99.90;;;;;;5014160;28;20197;-48
2023/08/04 06:32:24;;;;;;;13.18;5.18;;;16.60;99.90;;;;;;5014070;28;20180;-47
2023/08/04 06:34:50;;;;;;;22.52;5.57;;;16.50;99.90;;;;;;5013779;28;20247;-47
2023/08/04 06:37:16;;;;;;;12.48;5.63;;;16.70;99.90;;;;;;5013752;28;20259;-48
2023/08/04 06:39:41;;;;;;;26.70;6.18;;;16.70;99.90;;;;;;5013607;28;20172;-47
2023/08/04 06:42:07;;;;;;;13.95;5.05;;;16.70;99.90;;;;;;5013645;28;20199;-48
2023/08/04 06:44:32;;;;;;;14.25;5.45;;;16.80;99.90;;;;;;5013524;28;20164;-48
2023/08/04 06:46:58;;;;;;;13.55;5.50;;;16.80;99.90;;;;;;5021929;28;20178;-47
2023/08/04 06:49:23;;;;;;;15.40;6.03;;;16.70;99.90;;;;;;5033804;28;20163;-47
2023/08/04 06:51:49;;;;;;;14.57;5.65;;;16.80;99.90;;;;;;5032800;28;20250;-48
2023/08/04 06:54:16;;;;;;;16.80;5.88;;;16.70;99.90;;;;;;5033156;28;20257;-47
2023/08/04 06:56:42;;;;;;;14.68;5.85;;;16.90;99.90;;;;;;5033575;28;20181;-47
2023/08/04 06:59:07;;;;;;;15.05;6.30;;;16.90;99.90;;;;;;5033081;28;20172;-48
2023/08/04 07:01:33;;;;;;;15.82;5.43;;;16.90;99.90;;;;;;5032822;28;20202;-49
2023/08/04 07:03:58;;;;;;;10.50;5.40;;;17.00;99.90;;;;;;5034004;28;20213;-47
2023/08/04 07:06:24;;;;;;;12.02;5.40;;;17.00;99.90;;;;;;5033012;28;20529;-48
2023/08/04 07:08:49;;;;;;;18.45;6.90;;;17.00;99.90;;;;;;5032987;28;20589;-47
2023/08/04 07:11:16;;;;;;;14.80;5.75;;;16.90;99.90;;;;;;5032582;28;20218;-47
2023/08/04 07:13:43;;;;;;;13.30;5.68;;;16.90;99.90;;;;;;5031445;28;20720;-47
2023/08/04 07:16:10;;;;;;;15.85;6.05;;;17.10;99.90;;;;;;5032934;28;20175;-48
2023/08/04 07:18:36;;;;;;;12.13;5.70;;;17.00;99.90;;;;;;5032429;28;20250;-47
2023/08/04 07:21:12;;;;;;;11.45;5.35;;;17.20;99.90;;;;;;5033027;28;20189;-48
2023/08/04 07:23:39;;;;;;;12.55;5.82;;;17.30;99.90;;;;;;5032864;28;20206;-48
2023/08/04 07:26:05;;;;;;;18.50;6.55;;;17.40;99.90;;;;;;5032571;28;20163;-47
2023/08/04 07:28:31;;;;;;;11.80;5.63;;;17.40;99.90;;;;;;5033109;28;20168;-47
2023/08/04 07:30:59;;;;;;;13.23;4.90;;;17.40;99.90;;;;;;5033020;28;20164;-47
2023/08/04 07:33:26;;;;;;;11.90;5.38;;;17.60;99.90;;;;;;5032755;28;20171;-48
2023/08/04 07:35:54;;;;;;;12.15;5.10;;;17.50;99.90;;;;;;5032331;28;20577;-48
2023/08/04 07:38:20;;;;;;;18.35;5.78;;;17.40;99.90;;;;;;5032334;28;20205;-47
2023/08/04 07:40:46;;;;;;;14.73;6.05;;;17.40;99.90;;;;;;5032367;28;20163;-47
2023/08/04 07:43:13;;;;;;;10.23;5.80;;;17.50;99.90;;;;;;5032131;28;20294;-49
2023/08/04 07:45:39;;;;;;;11.57;5.65;;;17.70;99.90;;;;;;5032440;28;20172;-50
2023/08/04 07:48:04;;;;;;;13.80;5.10;;;17.90;99.90;;;;;;5016084;28;20172;-50
2023/08/04 07:50:30;;;;;;;13.73;5.47;;;17.80;99.90;;;;;;5012755;28;20613;-50
2023/08/04 07:52:56;;;;;;;10.57;5.03;;;18.00;99.90;;;;;;5011768;28;20588;-48
2023/08/04 07:55:22;;;;;;;14.02;5.47;;;17.90;99.90;;;;;;5012149;28;20168;-47
2023/08/04 07:57:48;;;;;;;12.45;5.28;;;17.90;99.90;;;;;;5012041;28;20175;-50
2023/08/04 08:00:14;;;;;;;16.88;5.00;;;18.00;99.90;;;;;;5012173;28;20521;-48
2023/08/04 08:02:39;;;;;;;9.80;4.78;;;18.10;99.90;;;;;;5011318;28;20580;-49
2023/08/04 08:05:05;;;;;;;15.55;5.78;;;18.20;99.90;;;;;;5011671;28;20166;-49
2023/08/04 08:07:31;;;;;;;12.50;5.75;;;18.20;99.90;;;;;;5012296;28;20176;-50
2023/08/04 08:09:56;;;;;;;11.07;5.07;;;18.20;99.90;;;;;;5012164;28;20164;-51
2023/08/04 08:12:22;;;;;;;12.60;5.22;;;18.20;99.90;;;;;;5011713;28;20306;-48
2023/08/04 08:14:48;;;;;;;16.55;5.65;;;18.40;99.90;;;;;;5011508;28;20565;-50
2023/08/04 08:17:13;;;;;;;11.77;5.10;;;18.40;99.90;;;;;;5023779;28;20669;-50
2023/08/04 08:19:39;;;;;;;11.10;4.85;;;18.60;99.90;;;;;;5031226;28;20262;-50
2023/08/04 08:22:05;;;;;;;13.07;4.75;;;18.70;99.90;;;;;;5031172;28;20202;-50
2023/08/04 08:24:30;;;;;;;13.05;4.70;;;18.70;99.90;;;;;;5031589;28;20175;-50
2023/08/04 08:26:56;;;;;;;8.70;4.28;;;18.60;99.90;;;;;;5031113;28;20168;-50
2023/08/04 08:29:21;;;;;;;10.02;4.07;;;18.70;99.90;;;;;;5031122;28;20277;-50
2023/08/04 08:31:47;;;;;;;18.20;4.28;;;18.90;99.90;;;;;;5031055;28;20176;-47
2023/08/04 08:34:12;;;;;;;7.20;3.83;;;18.80;99.90;;;;;;5031304;28;20565;-48
2023/08/04 08:36:38;;;;;;;8.48;3.50;;;19.00;99.90;;;;;;5031279;28;20171;-48
2023/08/04 08:39:04;;;;;;;13.23;3.78;;;18.90;99.90;;;;;;5031169;28;20177;-46
2023/08/04 08:41:29;;;;;;;11.15;3.65;;;18.90;99.90;;;;;;5031481;28;20187;-46
2023/08/04 08:43:55;;;;;;;16.17;4.35;;;18.90;99.90;;;;;;5030993;28;20167;-46
2023/08/04 08:46:21;;;;;;;11.75;3.85;;;18.90;99.90;;;;;;5025816;28;20168;-46
2023/08/04 08:48:49;;;;;;;9.68;4.07;;;18.90;99.90;;;;;;5011371;28;20698;-47
2023/08/04 08:51:19;;;;;;;11.60;3.88;;;18.80;99.90;;;;;;5011391;28;20171;-47
2023/08/04 08:53:47;;;;;;;6.80;3.40;;;19.10;99.90;;;;;;5011311;28;20243;-46
2023/08/04 08:56:13;;;;;;;9.55;3.67;;;19.30;99.90;;;;;;5011250;28;20530;-46
2023/08/04 08:58:41;;;;;;;8.07;3.70;;;19.30;99.90;;;;;;5011269;28;20183;-46
2023/08/04 09:01:07;;;;;;;10.32;4.85;;;19.40;99.90;;;;;;5011141;28;20164;-46
2023/08/04 09:03:37;;;;;;;11.95;3.47;;;19.50;99.90;;;;;;5011315;28;20245;-46
2023/08/04 09:06:03;;;;;;;6.20;2.95;;;19.30;99.90;;;;;;5010054;28;20662;-46
2023/08/04 09:08:29;;;;;;;7.97;3.63;;;19.20;99.90;;;;;;5011527;28;20176;-47
2023/08/04 09:10:56;;;;;;;8.77;3.67;;;19.20;99.90;;;;;;5011041;28;20156;-46
2023/08/04 09:13:22;;;;;;;7.20;3.60;;;19.20;99.90;;;;;;5010921;28;20227;-46
2023/08/04 09:15:53;;;;;;;6.10;3.25;;;19.20;99.90;;;;;;5014591;28;20171;-46
2023/08/04 09:18:32;;;;;;;10.65;4.00;;;19.30;99.90;;;;;;5034622;28;20274;-46
2023/08/04 09:21:07;;;;;;;8.35;3.90;;;19.20;99.90;;;;;;5035258;28;20163;-47
2023/08/04 09:23:35;;;;;;;8.73;4.10;;;19.20;99.90;;;;;;5034782;28;20206;-46
2023/08/04 09:26:01;;;;;;;15.98;3.90;;;19.10;99.90;;;;;;5034903;28;20193;-47
2023/08/04 09:28:27;;;;;;;9.40;4.07;;;19.10;99.90;;;;;;5035170;28;20168;-47
2023/08/04 09:31:00;;;;;;;11.07;3.95;;;19.10;99.90;;;;;;5033827;28;20577;-46
2023/08/04 09:33:26;;;;;;;11.57;3.60;;;19.60;99.90;;;;;;5034869;28;20171;-49
2023/08/04 09:36:04;;;;;;;10.35;3.22;;;19.60;99.90;;;;;;5034726;28;20170;-47
2023/08/04 09:38:30;;;;;;;11.70;3.00;;;19.90;99.90;;;;;;5034907;28;20167;-47
2023/08/04 09:41:01;;;;;;;8.98;2.90;;;20.30;99.90;;;;;;5034358;28;20175;-47
2023/08/04 09:43:27;;;;;;;6.47;3.15;;;20.50;99.90;;;;;;5034821;28;20329;-47
2023/08/04 09:45:58;;;;;;;8.77;2.83;;;20.50;99.90;;;;;;5030962;28;20258;-47
2023/08/04 09:48:27;;;;;;;8.32;3.10;;;20.60;99.90;;;;;;5014685;28;20735;-46
2023/08/04 09:51:19;;;;;;;5.22;2.63;;;20.60;99.90;;;;;;5014557;28;20180;-46
2023/08/04 09:53:52;;;;;;;5.47;2.30;;;20.60;99.90;;;;;;5014493;28;20171;-46
2023/08/04 09:56:20;;;;;;;6.45;2.78;;;20.40;99.90;;;;;;5014571;28;20172;-46
2023/08/04 09:58:47;;;;;;;7.60;3.00;;;20.30;99.90;;;;;;5014403;28;20160;-47
2023/08/04 10:01:14;;;;;;;10.45;2.97;;;20.20;99.90;;;;;;5014450;28;20298;-46
2023/08/04 10:03:41;;;;;;;9.75;3.50;;;20.50;99.90;;;;;;5014181;28;20679;-46
2023/08/04 10:06:07;;;;;;;4.60;2.80;;;20.60;99.90;;;;;;5014362;28;20170;-46
2023/08/04 10:08:39;;;;;;;7.78;2.40;;;20.80;99.90;;;;;;5014271;28;20251;-46
2023/08/04 10:11:05;;;;;;;5.25;2.10;;;20.70;99.90;;;;;;5014515;28;20500;-47
2023/08/04 10:13:39;;;;;;;9.13;2.83;;;20.50;99.90;;;;;;5014419;28;20228;-46
2023/08/04 10:16:08;;;;;;;10.15;3.15;;;20.30;99.90;;;;;;5019003;28;20555;-46
2023/08/04 10:18:51;;;;;;;6.90;3.22;;;20.20;99.90;;;;;;5034434;28;20217;-46
2023/08/04 10:21:20;;;;;;;8.30;2.70;;;20.20;99.90;;;;;;5034533;28;20265;-47
2023/08/04 10:23:46;;;;;;;10.98;2.97;;;20.10;99.90;;;;;;5033181;28;20207;-47
2023/08/04 10:26:12;;;;;;;5.82;2.67;;;20.20;99.90;;;;;;5033281;28;20661;-46
2023/08/04 10:29:03;;;;;;;7.07;2.63;;;20.20;99.90;;;;;;5034258;28;20230;-46
2023/08/04 10:31:53;;;;;;;5.50;2.30;;;20.20;99.90;;;;;;5034499;28;20174;-47
2023/08/04 10:34:26;;;;;;;5.50;2.83;;;20.30;99.90;;;;;;5034262;28;20213;-47
2023/08/04 10:37:11;;;;;;;3.47;1.95;;;20.50;99.90;;;;;;5033944;28;20178;-46
2023/08/04 10:39:42;;;;;;;4.78;2.50;;;20.60;99.90;;;;;;5033842;28;20631;-47
2023/08/04 10:42:20;;;;;;;5.95;2.50;;;20.70;99.90;;;;;;5033868;28;20199;-46
2023/08/04 10:45:05;;;;;;;5.22;2.60;;;20.80;99.90;;;;;;5033831;28;20242;-47
2023/08/04 10:47:51;;;;;;;6.43;2.70;;;20.90;99.90;;;;;;5033764;28;20642;-47
2023/08/04 10:50:16;;;;;;;4.60;2.65;;;21.30;99.90;;;;;;5033760;28;20170;-47
2023/08/04 10:52:42;;;;;;;3.50;2.10;;;21.50;99.90;;;;;;5033889;28;20229;-47
2023/08/04 10:55:11;;;;;;;3.70;2.45;;;21.50;99.90;;;;;;5033693;28;20190;-46
2023/08/04 10:57:38;;;;;;;4.53;2.22;;;21.40;99.90;;;;;;5033909;28;20176;-47
2023/08/04 11:00:06;;;;;;;3.78;2.20;;;21.50;99.90;;;;;;5033556;28;20170;-47
2023/08/04 11:02:33;;;;;;;4.95;2.10;;;21.70;99.90;;;;;;5033689;28;20580;-46
2023/08/04 11:04:59;;;;;;;4.20;2.15;;;21.60;99.90;;;;;;5033069;28;20159;-50
2023/08/04 11:07:25;;;;;;;3.88;2.60;;;21.50;99.90;;;;;;5033476;28;20168;-49
2023/08/04 11:09:52;;;;;;;5.45;2.20;;;21.70;99.90;;;;;;5033365;28;20171;-49
2023/08/04 11:12:18;;;;;;;5.63;1.90;;;21.90;99.90;;;;;;5032868;28;20218;-49
2023/08/04 11:14:44;;;;;;;4.68;2.80;;;22.20;99.90;;;;;;5033079;28;20175;-50
2023/08/04 11:17:20;;;;;;;6.63;2.80;;;22.50;99.90;;;;;;5019956;28;20701;-50
2023/08/04 11:19:50;;;;;;;5.78;2.95;;;22.40;99.90;;;;;;5013262;28;20186;-50
2023/08/04 11:22:18;;;;;;;8.70;2.38;;;22.30;99.90;;;;;;5012995;28;20253;-48
2023/08/04 11:24:44;;;;;;;4.22;2.33;;;21.80;99.90;;;;;;5013022;28;20176;-47
2023/08/04 11:27:11;;;;;;;3.17;2.30;;;21.40;99.90;;;;;;5012156;28;20168;-47
2023/08/04 11:29:37;;;;;;;4.78;2.42;;;21.40;99.90;;;;;;5012955;28;20167;-48
2023/08/04 11:32:09;;;;;;;4.55;2.45;;;21.10;99.90;;;;;;5013047;28;20230;-49
2023/08/04 11:34:35;;;;;;;5.40;2.90;;;21.00;99.90;;;;;;5012607;28;20175;-47
2023/08/04 11:37:01;;;;;;;5.53;2.80;;;20.90;99.90;;;;;;5012819;28;20160;-48
2023/08/04 11:39:29;;;;;;;3.88;2.67;;;20.80;99.90;;;;;;5012427;28;20715;-49
2023/08/04 11:41:55;;;;;;;6.13;2.97;;;20.90;99.90;;;;;;5012702;28;20219;-48
2023/08/04 11:44:22;;;;;;;5.28;2.85;;;20.80;99.90;;;;;;5011494;28;20180;-49
2023/08/04 11:46:48;;;;;;;5.38;3.10;;;21.00;99.90;;;;;;5024888;28;20521;-47
2023/08/04 11:49:14;;;;;;;5.82;2.53;;;21.10;99.90;;;;;;5032093;28;20229;-47
2023/08/04 11:51:43;;;;;;;3.28;2.25;;;21.30;99.90;;;;;;5032395;28;20175;-49
2023/08/04 11:54:24;;;;;;;4.97;2.33;;;21.70;99.90;;;;;;5031042;28;20698;-50
2023/08/04 11:56:58;;;;;;;6.05;2.40;;;21.80;99.90;;;;;;5032209;28;20246;-50
2023/08/04 11:59:24;;;;;;;4.22;1.98;;;21.90;99.90;;;;;;5032310;28;20263;-47
2023/08/04 12:01:50;;;;;;;4.72;2.13;;;21.90;99.90;;;;;;5032020;28;20245;-47
2023/08/04 12:04:21;;;;;;;4.88;2.17;;;22.50;99.90;;;;;;5032332;28;20178;-47
2023/08/04 12:06:48;;;;;;;2.58;1.92;;;22.50;99.90;;;;;;5032317;28;20253;-48
2023/08/04 12:09:14;;;;;;;3.30;1.90;;;22.40;99.90;;;;;;5032091;28;20277;-47
2023/08/04 12:11:47;;;;;;;2.35;1.67;;;22.90;99.90;;;;;;5030584;28;20226;-47
2023/08/04 12:14:13;;;;;;;1.95;1.77;;;22.70;99.90;;;;;;5031967;28;20173;-47
2023/08/04 12:16:56;;;;;;;2.75;1.90;;;22.90;99.90;;;;;;5029880;28;20534;-47
2023/08/04 12:19:33;;;;;;;4.10;2.28;;;23.30;99.90;;;;;;5014397;28;20179;-48
2023/08/04 12:22:03;;;;;;;4.22;2.22;;;23.10;99.90;;;;;;5012339;28;20291;-47
2023/08/04 12:24:29;;;;;;;2.90;2.10;;;22.90;99.90;;;;;;5011292;28;20182;-47
2023/08/04 12:26:55;;;;;;;5.82;2.30;;;23.20;99.90;;;;;;5012751;28;20172;-47
2023/08/04 12:29:21;;;;;;;5.38;2.33;;;23.40;99.90;;;;;;5012013;28;20218;-47
2023/08/04 12:31:47;;;;;;;2.40;2.00;;;23.30;99.90;;;;;;5010497;28;20163;-47
2023/08/04 12:34:12;;;;;;;3.55;2.17;;;23.20;99.90;;;;;;5011938;28;20530;-48
2023/08/04 12:36:39;;;;;;;5.15;2.35;;;23.30;99.90;;;;;;5011947;28;20238;-47
2023/08/04 12:39:05;;;;;;;4.32;2.17;;;23.80;99.90;;;;;;5010526;28;20178;-47
2023/08/04 12:41:31;;;;;;;2.50;1.90;;;23.20;99.90;;;;;;5011655;28;20164;-48